• Join FlightAware (Why Join?)
  • Login
  • US Flag 
12:06AM EDT


 

Airport Tracker/Info


-or-


 

Live Flight TrackerFlight Track Log ✈ GJS3710 ✈ 30-Apr-2013 ✈ KDEN - KSTL

Flight Track Log - Related Links

Times and Time Zones

All times are in EDT time to prevent confusion due to time zone crossing. See the GJS3710 flight status page for this flight to view local times or setup timezone preferences in your user account.

Time Position Orientation Groundspeed Altitude Reporting Facility
EDT Latitude Longitude Course Direction KTS MPH feet Rate Location/Type
02:51PM 39.8833 -104.6000 108° East 164 189 7,100  Level Denver TRACON
02:52PM 39.8500 -104.5333 123° Southeast 220 253 9,000 1,620 Climbing Denver TRACON
02:53PM 39.8375 -104.4711 105° East 240 276 9,900 1,560 Climbing Denver Center
02:54PM 39.7700 -104.0713 101° East  Level FlightAware Approximate
02:54PM 39.8094 -104.3686 110° East 298 343 11,700  Level Denver Center
02:55PM 39.7649 -103.9207 100° East  Level FlightAware Approximate
02:55PM 39.7981 -104.2328 96° East 349 402 13,200  Level Denver Center
02:56PM 39.7392 -103.7735 108° East  Level FlightAware Approximate
02:56PM 39.7828 -104.0967 98° East 383 441 15,300  Level Denver Center
02:57PM 39.7658 -103.9456 98° East 397 457 17,700 1,740 Climbing Denver Center
02:58PM 39.7533 -103.8364 98° East 399 459 18,900 1,260 Climbing Denver Center
02:59PM 39.7356 -103.6758 98° East 412 474 20,400 1,500 Climbing Denver Center
03:00PM 39.7217 -103.4944 96° East 445 512 22,000 1,500 Climbing Denver Center
03:01PM 39.7075 -103.3203 96° East 461 531 23,500 1,440 Climbing Denver Center
03:02PM 39.6925 -103.1300 96° East 474 545 25,000 1,380 Climbing Denver Center
03:03PM 39.6847 -102.9656 93° East 476 548 26,400 1,440 Climbing Denver Center
03:04PM 39.6794 -102.7725 92° East 481 554 28,000 1,380 Climbing Denver Center
03:05PM 39.6744 -102.6056 92° East 483 556 29,300 1,080 Climbing Denver Center
03:06PM 39.6686 -102.4397 93° East 483 556 30,300 960 Climbing Denver Center
03:07PM 39.6617 -102.2428 93° East 488 562 31,300 900 Climbing Denver Center
03:08PM 39.6561 -102.0731 92° East 493 567 32,200 780 Climbing Denver Center
03:09PM 39.6511 -101.9300 93° East 496 571 32,900 900 Climbing Denver Center
03:10PM 39.6411 -101.7000 93° East 501 577 34,100 1,020 Climbing Denver Center
03:11PM 39.6342 -101.5008 93° East 498 573 35,100 900 Climbing Denver Center
03:12PM 39.6267 -101.3308 93° East 496 571 36,000 900 Climbing Denver Center
03:13PM 39.6192 -101.1344 93° East 491 565 37,000 840 Climbing Denver Center
03:14PM 39.6106 -100.9692 94° East 485 558 37,800 780 Climbing Denver Center
03:15PM 39.6039 -100.8061 93° East 479 551 38,700 540 Climbing Denver Center
03:16PM 39.5944 -100.6194 94° East 470 541 39,000 120 Climbing Denver Center
03:17PM 39.5861 -100.4550 94° East 475 547 39,000  Level Denver Center
03:18PM 39.5767 -100.2633 94° East 478 550 39,000  Level Denver Center
03:19PM 39.5683 -100.0986 94° East 481 554 39,000  Level Denver Center
03:20PM 39.5575 -99.9106 94° East 483 556 39,000  Level Denver Center
03:22PM 39.5489 -99.7386 94° East 480 552 39,000  Level Denver Center
03:23PM 39.5372 -99.5356 94° East 472 543 39,000  Level Denver Center
03:24PM 39.5278 -99.3700 94° East 463 533 39,000  Level Denver Center
03:25PM 39.5181 -99.2131 95° East 443 510 39,000  Level Denver Center
03:26PM 39.5053 -99.0228 95° East 443 510 39,000  Level Denver Center
03:27PM 39.4953 -98.8597 94° East 452 520 39,000 -120 Level Denver Center
03:28PM 39.4842 -98.6967 95° East 457 526 38,800 -600 Descending Denver Center
03:29PM 39.4739 -98.5294 94° East 465 535 37,800 -1,020 Descending Denver Center
03:30PM 39.4622 -98.3583 95° East 475 547 36,800 -1,020 Descending Denver Center
03:31PM 39.4508 -98.1864 95° East 479 551 35,800 -1,020 Descending Denver Center
03:31PM 39.4453 -98.1133 96° East 477 549 35,400 -600 Descending Kansas City Center
03:32PM 39.4344 -97.9489 95° East 480 552 35,000 -240 Descending Kansas City Center
03:33PM 39.4225 -97.7722 95° East 484 557 35,000  Level Kansas City Center
03:34PM 39.4100 -97.6028 95° East 476 548 35,000  Level Kansas City Center
03:35PM 39.3925 -97.4061 97° East 469 540 35,000  Level Kansas City Center
03:36PM 39.3819 -97.2450 95° East 470 541 35,000  Level Kansas City Center
03:37PM 39.3672 -97.0544 96° East 476 548 35,000  Level Kansas City Center
03:38PM 39.3542 -96.8914 96° East 477 549 35,000  Level Kansas City Center
03:40PM 39.3389 -96.7022 96° East 475 547 35,000  Level Kansas City Center
03:41PM 39.3256 -96.5406 96° East 475 547 35,000  Level Kansas City Center
03:42PM 39.3106 -96.3789 97° East 477 549 35,000  Level Kansas City Center
03:43PM 39.2969 -96.2103 96° East 473 544 35,000  Level Kansas City Center
03:44PM 39.2789 -96.0272 97° East 473 544 35,000  Level Kansas City Center
03:45PM 39.2625 -95.8383 96° East 473 544 35,000  Level Kansas City Center
03:46PM 39.2481 -95.6789 97° East 471 542 35,000  Level Kansas City Center
03:47PM 39.2306 -95.4919 97° East 469 540 35,000  Level Kansas City Center
03:48PM 39.2136 -95.3119 97° East 472 543 35,000  Level Kansas City Center
03:49PM 39.1975 -95.1456 97° East 470 541 35,000  Level Kansas City Center
03:50PM 39.1808 -94.9719 97° East 466 536 35,000  Level Kansas City Center
03:51PM 39.1653 -94.8136 97° East 466 536 35,000  Level Kansas City Center
03:52PM 39.1464 -94.6286 97° East 467 537 35,000  Level Kansas City Center
03:53PM 39.1306 -94.4719 97° East 463 533 35,000  Level Kansas City Center
03:54PM 39.1117 -94.2883 97° East 462 532 35,000  Level Kansas City Center
03:55PM 39.0950 -94.1306 98° East 465 535 35,000  Level Kansas City Center
03:56PM 39.0717 -93.9753 101° East 463 533 35,000 -60 Level Kansas City Center
03:57PM 39.0372 -93.7969 104° East 459 528 34,900 -840 Descending Kansas City Center
03:58PM 38.9881 -93.6619 115° Southeast 449 517 33,300 -1,740 Descending Kansas City Center
03:59PM 38.9256 -93.4892 115° Southeast 445 512 31,300 -1,740 Descending Kansas City Center
04:00PM 38.8708 -93.3453 116° Southeast 445 512 29,700 -1,560 Descending Kansas City Center
04:01PM 38.8122 -93.1994 117° Southeast 453 521 28,100 -1,560 Descending Kansas City Center
04:02PM 38.7953 -93.0364 98° East 462 532 26,500 -1,560 Descending Kansas City Center
04:03PM 38.7886 -92.8750 93° East 457 526 24,900 -1,260 Descending Kansas City Center
04:04PM 38.7811 -92.7156 93° East 452 520 24,000 -1,020 Descending Kansas City Center
04:05PM 38.7733 -92.5633 94° East 438 504 22,900 -1,320 Descending Kansas City Center
04:06PM 38.7636 -92.3822 94° East 427 491 21,300 -1,380 Descending Kansas City Center
04:07PM 38.7550 -92.2314 94° East 422 486 20,100 -1,140 Descending Kansas City Center
04:08PM 38.7467 -92.0839 94° East 415 478 19,000 -1,080 Descending Kansas City Center
04:10PM 38.7394 -91.9425 94° East 404 465 17,900 -1,200 Descending Kansas City Center
04:11PM 38.7311 -91.8064 94° East 387 445 16,600 -1,260 Descending Kansas City Center
04:12PM 38.7233 -91.6717 94° East 381 438 15,300 -1,260 Descending Kansas City Center
04:13PM 38.7147 -91.5422 95° East 374 430 14,000 -1,260 Descending Kansas City Center
04:14PM 38.7072 -91.4181 94° East 363 418 12,700 -1,440 Descending Kansas City Center
04:15PM 38.6983 -91.2742 94° East 349 402 11,100 -1,020 Descending Kansas City Center
04:16PM 38.6942 -91.1653 93° East 327 376 10,700 -600 Descending Kansas City Center
04:17PM 38.7142 -91.0625 76° East 307 353 9,900 -1,020 Descending Kansas City Center
04:18PM 38.7556 -90.9717 60° Northeast 300 345 8,700 -1,440 Descending Kansas City Center
04:19PM 38.7975 -90.8792 60° Northeast 300 345 7,000 -1,560 Descending Kansas City Center
04:20PM 38.8358 -90.7961 59° Northeast 286 329 5,500 -1,620 Descending Kansas City Center
04:21PM 38.8431 -90.6853 85° East 270 311 3,700 -1,260 Descending Kansas City Center
04:22PM 38.8475 -90.5942 86° East 263 303 3,000 -540 Descending Kansas City Center
04:23PM 38.8217 -90.5333 119° Southeast 217 250 2,700 -300 Descending Kansas City Center